createdAt,value
2022-12-24T05:29:55.802Z,1.96
2022-12-24T05:30:59.465Z,2.03
2022-12-24T06:48:12.353Z,1.36
2022-12-24T06:58:41.540Z,1.41
2022-12-24T07:07:15.408Z,1.01
2022-12-24T07:08:17.559Z,1.29
2022-12-24T07:09:20.757Z,1.28
2022-12-24T07:10:23.074Z,1.32
2022-12-24T07:11:27.622Z,1.02
2022-12-24T07:12:29.805Z,1.10
2022-12-24T07:13:34.404Z,1.13
2022-12-24T07:14:36.642Z,1.32
2022-12-24T07:15:40.023Z,1.13
2022-12-24T07:16:42.451Z,1.24
2022-12-24T07:17:45.976Z,1.17
2022-12-24T07:18:51.374Z,0.88
2022-12-24T07:19:54.689Z,1.22
2022-12-24T07:20:56.977Z,1.27
2022-12-24T07:22:00.140Z,1.39
2022-12-24T07:23:03.737Z,1.18
2022-12-24T07:24:07.432Z,1.27
2022-12-24T07:25:10.950Z,1.12
2022-12-24T07:26:14.407Z,1.09
2022-12-24T07:27:16.682Z,0.84
2022-12-24T07:28:24.041Z,0.97
2022-12-24T07:29:29.792Z,0.96
2022-12-24T07:30:32.887Z,0.90
2022-12-24T07:31:35.090Z,1.07
2022-12-24T07:32:38.282Z,0.96
2022-12-24T07:33:40.437Z,0.89
2022-12-24T07:34:43.709Z,0.98
2022-12-24T07:35:48.477Z,0.75
2022-12-24T07:36:55.380Z,0.85
2022-12-24T07:37:57.604Z,0.90
2022-12-24T07:39:02.104Z,0.82
2022-12-24T07:40:08.032Z,0.81
2022-12-24T07:41:11.160Z,0.74
2022-12-24T07:42:13.361Z,0.95
2022-12-24T07:43:16.575Z,0.89
2022-12-24T07:44:18.933Z,0.75
2022-12-24T07:45:22.096Z,0.75
2022-12-24T07:46:24.377Z,0.67
2022-12-24T07:47:27.588Z,0.74
2022-12-24T07:48:31.244Z,0.76
2022-12-24T07:49:35.026Z,0.75
2022-12-24T07:50:37.293Z,0.85
2022-12-24T07:51:40.658Z,0.79
2022-12-24T07:52:43.783Z,0.90
2022-12-24T07:53:47.968Z,0.87
2022-12-24T07:54:52.630Z,0.72
2022-12-24T07:55:55.486Z,0.83
2022-12-24T07:56:58.684Z,0.84
2022-12-24T07:58:00.975Z,0.69
2022-12-24T07:59:07.114Z,0.68
2022-12-24T08:00:10.370Z,0.76
2022-12-24T08:01:14.092Z,0.69
2022-12-24T08:02:18.672Z,0.88
2022-12-24T08:03:23.030Z,0.94
2022-12-24T08:04:25.258Z,0.63
2022-12-24T08:05:28.680Z,0.74
2022-12-24T08:06:30.904Z,0.82
2022-12-24T08:07:34.356Z,0.74
2022-12-24T08:08:37.388Z,0.85
2022-12-24T08:09:41.206Z,0.74
2022-12-24T08:10:46.253Z,0.71
2022-12-24T08:11:52.244Z,0.62
2022-12-24T08:12:54.798Z,0.71
2022-12-24T08:13:58.005Z,0.71
2022-12-24T08:15:00.183Z,1.02
2022-12-24T08:16:03.520Z,0.82
2022-12-24T08:17:05.737Z,0.73
2022-12-24T08:18:09.011Z,0.91
2022-12-24T08:19:11.216Z,0.80
2022-12-24T08:20:16.128Z,0.98
2022-12-24T08:21:18.600Z,0.78
2022-12-24T08:22:21.967Z,0.84
2022-12-24T08:23:24.949Z,1.00
2022-12-24T08:24:28.403Z,0.89
2022-12-24T08:25:31.290Z,1.05
2022-12-24T08:26:36.156Z,0.94
2022-12-24T08:27:38.526Z,0.89
2022-12-24T08:28:42.520Z,0.75
2022-12-24T08:29:44.743Z,0.76
2022-12-24T08:30:50.917Z,0.99
2022-12-24T08:31:53.139Z,0.90
2022-12-24T08:32:56.281Z,0.98
2022-12-24T08:33:58.464Z,0.86
2022-12-24T08:35:01.620Z,0.82
2022-12-24T08:36:04.643Z,0.89
2022-12-24T08:37:07.960Z,0.85
2022-12-24T08:38:10.040Z,1.19
2022-12-24T08:39:13.212Z,0.98
2022-12-24T08:40:15.655Z,1.31
2022-12-24T08:41:18.888Z,1.61
2022-12-24T08:42:23.555Z,1.23
2022-12-24T08:43:26.793Z,1.63
2022-12-24T08:44:29.958Z,1.69
2022-12-24T08:45:37.906Z,1.93
2022-12-24T08:46:43.308Z,4.64
2022-12-24T08:47:45.663Z,4.94
2022-12-24T08:48:48.908Z,5.11
2022-12-24T08:49:52.069Z,3.90
2022-12-24T08:50:55.202Z,3.35
2022-12-24T08:51:58.344Z,4.60
2022-12-24T08:53:01.520Z,7.14
2022-12-24T08:54:03.940Z,5.25
2022-12-24T08:55:08.020Z,2.87
2022-12-24T08:56:12.930Z,1.78
2022-12-24T08:57:15.197Z,1.60
2022-12-24T08:58:19.846Z,2.03
2022-12-24T08:59:22.036Z,1.86
2022-12-24T09:00:25.276Z,1.48
2022-12-24T09:01:27.586Z,1.72
2022-12-24T09:02:31.954Z,1.76
2022-12-24T09:03:34.341Z,2.26
2022-12-24T09:04:40.641Z,2.16
2022-12-24T09:05:44.654Z,2.19
2022-12-24T09:06:46.959Z,1.71
2022-12-24T09:07:50.726Z,1.53
2022-12-24T09:08:53.981Z,1.56
2022-12-24T09:09:56.143Z,1.80
2022-12-24T09:11:04.631Z,1.69
2022-12-24T09:12:09.953Z,1.86
2022-12-24T09:13:12.209Z,2.71
2022-12-24T09:14:16.830Z,2.09
2022-12-24T09:15:19.504Z,1.96
2022-12-24T09:16:23.001Z,1.60
2022-12-24T09:17:25.292Z,2.25
2022-12-24T09:18:28.954Z,2.14
2022-12-24T09:19:31.308Z,1.63
2022-12-24T09:20:34.711Z,1.30
2022-12-24T09:21:36.927Z,1.16
2022-12-24T09:22:41.535Z,1.02
2022-12-24T09:23:46.499Z,0.92
2022-12-24T09:24:49.639Z,1.12
2022-12-24T09:25:51.789Z,0.87
2022-12-24T09:26:58.006Z,1.06
2022-12-24T09:28:00.740Z,1.29
2022-12-24T09:29:04.481Z,1.08
2022-12-24T09:30:09.655Z,0.98
2022-12-24T09:31:14.615Z,1.07
2022-12-24T09:32:17.289Z,1.09
2022-12-24T14:59:13.017Z,2.25
2022-12-24T15:00:20.815Z,1.87
2022-12-24T15:01:26.810Z,2.74
2022-12-24T15:02:42.222Z,2.81
2022-12-24T15:03:45.584Z,2.29
2022-12-24T15:05:03.756Z,3.10
2022-12-24T15:06:11.766Z,2.99
2022-12-24T15:07:14.041Z,3.20
2022-12-24T15:08:21.311Z,3.08
2022-12-24T15:09:26.837Z,2.92
2022-12-24T15:10:34.726Z,3.04
2022-12-24T15:11:37.453Z,1.93
2022-12-24T15:12:42.701Z,2.84
2022-12-24T15:13:53.251Z,3.44
2022-12-24T15:14:55.703Z,4.81
2022-12-24T15:16:00.889Z,5.83
2022-12-24T15:17:07.505Z,5.25
2022-12-24T15:18:18.084Z,4.51
2022-12-24T15:19:25.709Z,4.71
2022-12-24T15:20:29.969Z,4.15
2022-12-24T15:21:39.873Z,3.78
2022-12-24T15:22:43.335Z,3.20
2022-12-24T15:23:49.820Z,1.80
2022-12-24T15:24:52.663Z,1.98
2022-12-24T15:26:21.830Z,3.34
2022-12-24T15:27:27.623Z,2.64
2022-12-24T15:28:35.933Z,1.60
2022-12-24T15:29:44.818Z,1.41
2022-12-24T15:30:47.905Z,1.16
2022-12-24T15:31:57.310Z,1.24
2022-12-24T15:33:00.475Z,0.90
2022-12-24T15:34:03.768Z,1.35
2022-12-24T15:35:06.709Z,1.52
2022-12-24T15:36:10.708Z,1.08
2022-12-24T15:37:45.146Z,1.47
2022-12-24T15:38:54.379Z,1.09
2022-12-24T15:40:02.232Z,1.04
2022-12-24T15:41:16.442Z,1.27
2022-12-24T15:42:22.559Z,1.59
2022-12-24T15:43:27.740Z,2.41
2022-12-24T15:44:35.605Z,3.82
2022-12-24T15:45:45.765Z,4.41
2022-12-24T15:46:48.042Z,3.98
2022-12-24T15:47:56.564Z,3.42
2022-12-24T15:49:01.933Z,3.24
2022-12-24T15:50:16.856Z,3.49
2022-12-24T15:51:26.852Z,2.22
2022-12-24T15:52:29.281Z,2.62
2022-12-24T15:53:36.857Z,2.41
2022-12-24T15:54:44.975Z,2.26
2022-12-24T15:56:02.961Z,1.69
2022-12-24T15:57:25.879Z,1.42
2022-12-24T15:58:30.379Z,2.61
2022-12-24T15:59:36.736Z,1.44
2022-12-24T16:00:39.479Z,1.67
2022-12-24T16:01:44.955Z,0.98
2022-12-24T16:02:48.395Z,1.81
2022-12-24T16:04:00.302Z,1.08
2022-12-24T16:05:39.332Z,2.22
2022-12-24T16:06:55.793Z,2.15
2022-12-24T16:08:10.027Z,2.46
2022-12-24T16:09:31.969Z,2.38
2022-12-24T16:10:35.620Z,2.18
2022-12-24T16:11:38.948Z,1.65
2022-12-24T16:12:41.587Z,1.29
2022-12-24T16:14:00.289Z,1.07
2022-12-24T16:15:02.673Z,1.76
2022-12-24T16:16:11.140Z,1.88
2022-12-24T16:17:22.118Z,1.22
2022-12-24T16:18:28.208Z,1.54
2022-12-24T16:19:40.043Z,4.14
2022-12-24T16:20:48.531Z,5.39
2022-12-24T16:21:55.340Z,5.00
2022-12-24T16:23:00.423Z,3.92
2022-12-24T16:24:15.843Z,3.13
2022-12-24T16:25:25.522Z,2.29
2022-12-24T16:26:28.705Z,3.48
2022-12-24T16:27:30.884Z,4.16
2022-12-24T16:28:34.374Z,4.11
2022-12-24T16:29:36.491Z,3.31
2022-12-24T16:30:40.265Z,3.30
2022-12-24T16:31:47.498Z,2.03
2022-12-24T16:32:50.973Z,1.85
2022-12-24T16:33:56.572Z,2.90
2022-12-24T16:35:01.561Z,14.57
2022-12-24T16:36:05.234Z,15.88
2022-12-24T16:37:08.033Z,11.61
2022-12-24T16:38:13.453Z,8.90
2022-12-24T16:39:23.233Z,8.13
2022-12-24T16:40:28.001Z,14.11
2022-12-24T16:41:30.484Z,10.57
2022-12-24T16:42:51.353Z,7.41
2022-12-24T16:43:53.543Z,16.47
2022-12-24T16:44:56.644Z,13.60
2022-12-24T16:46:03.141Z,9.17
2022-12-24T16:47:12.055Z,6.48
2022-12-24T16:48:21.352Z,4.70
2022-12-24T16:49:24.091Z,5.21
2022-12-24T16:50:29.340Z,6.31
2022-12-24T16:51:31.552Z,12.02
2022-12-24T16:52:34.801Z,8.35
2022-12-24T16:53:36.928Z,13.81
2022-12-24T16:54:40.040Z,14.14
2022-12-24T16:55:42.228Z,10.44
2022-12-24T16:56:48.104Z,7.83
2022-12-24T16:57:50.486Z,5.68
2022-12-24T16:58:53.615Z,7.83
2022-12-24T17:00:04.236Z,6.57
2022-12-24T17:01:08.632Z,6.42
2022-12-24T17:02:27.925Z,5.14
2022-12-24T17:03:30.183Z,6.12
2022-12-24T17:04:34.383Z,5.49
2022-12-24T17:05:40.039Z,6.11
2022-12-24T17:06:44.000Z,6.25
2022-12-24T17:07:46.155Z,6.81
2022-12-24T17:08:49.772Z,5.98
2022-12-24T17:09:52.112Z,6.53
2022-12-24T17:10:55.228Z,6.55
2022-12-24T17:11:57.923Z,5.22
2022-12-24T17:13:01.338Z,9.16
2022-12-24T17:14:08.111Z,7.17
2022-12-24T17:15:12.370Z,7.66
2022-12-24T17:16:14.578Z,9.91
2022-12-24T17:17:24.610Z,6.80
2022-12-24T17:18:26.787Z,4.25
2022-12-24T17:19:30.394Z,7.38
2022-12-24T17:20:32.573Z,7.24
2022-12-24T17:21:37.985Z,6.19
2022-12-24T17:22:40.499Z,4.74
2022-12-24T17:23:43.748Z,5.10
2022-12-24T17:24:46.392Z,2.99
2022-12-24T17:25:49.612Z,2.59
2022-12-24T17:26:51.829Z,2.00
2022-12-24T17:27:55.110Z,1.70
2022-12-24T17:28:57.429Z,1.18
2022-12-24T17:30:00.663Z,2.48
2022-12-24T17:31:07.224Z,4.24
2022-12-24T17:32:10.594Z,5.13
2022-12-24T17:33:15.026Z,4.24
2022-12-24T17:34:17.394Z,4.17
2022-12-24T17:35:20.928Z,4.94
2022-12-24T17:36:24.037Z,4.86
2022-12-24T17:37:28.665Z,2.61
2022-12-24T17:38:31.361Z,2.15
2022-12-24T17:39:34.456Z,1.81
2022-12-24T17:40:36.636Z,2.28
2022-12-24T17:41:46.078Z,2.59
2022-12-24T17:42:48.275Z,3.45
2022-12-24T17:44:10.000Z,3.10
2022-12-24T17:45:12.160Z,2.85
2022-12-24T17:46:18.471Z,2.35
2022-12-24T17:47:20.735Z,2.93
2022-12-24T17:48:23.907Z,2.95
2022-12-24T17:49:27.070Z,4.03
2022-12-24T17:50:29.278Z,3.51
2022-12-24T17:51:33.377Z,3.26
2022-12-24T17:52:36.875Z,2.76
2022-12-24T17:53:41.936Z,3.34
2022-12-24T17:54:45.021Z,3.44
2022-12-24T17:55:47.291Z,3.09
2022-12-24T17:56:50.389Z,2.32
2022-12-24T17:57:52.605Z,1.96
2022-12-24T17:58:56.060Z,1.95
2022-12-24T17:59:59.209Z,1.68
2022-12-24T18:01:01.401Z,1.50
2022-12-24T18:02:04.722Z,1.36
2022-12-24T18:03:07.815Z,1.22
2022-12-24T18:04:12.201Z,1.15
2022-12-24T18:05:15.362Z,0.97
2022-12-24T18:06:19.149Z,0.85
2022-12-24T18:07:22.259Z,0.78
2022-12-24T18:08:25.780Z,0.62
2022-12-24T18:09:28.917Z,0.55
2022-12-24T18:10:31.286Z,0.68
2022-12-24T18:11:36.084Z,0.49
2022-12-24T18:12:39.272Z,0.57
2022-12-24T18:13:42.456Z,0.68
2022-12-24T18:14:45.627Z,0.70
2022-12-24T18:15:47.768Z,1.03
2022-12-24T18:16:51.409Z,1.11
2022-12-24T18:17:55.965Z,1.65
2022-12-24T18:19:00.632Z,1.75
2022-12-24T18:20:02.779Z,1.39
2022-12-24T18:21:06.202Z,1.04
2022-12-24T18:22:09.278Z,0.91
2022-12-24T18:23:11.437Z,0.79
2022-12-24T18:24:16.003Z,0.93
2022-12-24T18:25:18.105Z,1.34
2022-12-24T18:26:22.388Z,1.52
2022-12-24T18:27:24.544Z,2.13
2022-12-24T18:28:27.696Z,2.03
2022-12-24T18:29:30.918Z,2.28
2022-12-24T18:30:33.165Z,2.54
2022-12-24T18:31:36.940Z,3.17
2022-12-24T18:32:39.205Z,2.74
2022-12-24T18:33:43.147Z,2.96
2022-12-24T18:34:46.428Z,3.11
2022-12-24T18:35:48.565Z,2.78
2022-12-24T18:36:55.289Z,2.79
2022-12-24T18:37:57.924Z,3.51
2022-12-24T18:39:02.762Z,3.80
2022-12-24T18:40:07.955Z,2.46
2022-12-24T18:41:13.641Z,2.72
2022-12-24T18:42:15.796Z,2.23
2022-12-24T18:43:19.409Z,2.40
2022-12-24T18:44:25.348Z,2.22
2022-12-24T18:45:29.082Z,3.12
2022-12-24T18:46:34.555Z,2.46
2022-12-24T18:47:36.739Z,2.03
2022-12-24T18:48:40.871Z,1.83
2022-12-24T18:49:43.103Z,1.74
2022-12-24T18:50:55.945Z,2.67
2022-12-24T18:51:58.112Z,2.60
2022-12-24T18:53:01.235Z,2.11
2022-12-24T18:54:04.013Z,4.66
2022-12-24T18:55:09.689Z,3.73
2022-12-24T18:56:14.269Z,3.19
2022-12-24T18:57:17.413Z,2.33
2022-12-24T18:58:19.979Z,6.32
2022-12-24T18:59:23.616Z,6.01
2022-12-24T19:00:26.301Z,4.75
2022-12-24T19:01:32.288Z,5.06
2022-12-24T19:02:35.655Z,9.74
2022-12-24T19:03:37.997Z,6.58
2022-12-24T19:04:41.398Z,4.14
2022-12-24T19:05:43.539Z,3.69
2022-12-24T19:06:52.706Z,3.65
2022-12-24T19:07:55.547Z,4.57
2022-12-24T19:09:00.135Z,3.40
2022-12-24T19:10:04.259Z,4.04
2022-12-24T19:11:09.345Z,3.58
2022-12-24T19:12:11.521Z,4.19
2022-12-24T19:13:14.635Z,5.70
2022-12-24T19:14:20.089Z,5.50
2022-12-24T19:15:22.399Z,3.35
2022-12-24T19:16:25.600Z,3.52
2022-12-24T19:17:28.085Z,4.15
2022-12-24T19:18:31.254Z,5.27
2022-12-24T19:19:33.356Z,3.81
2022-12-24T19:20:40.404Z,3.31
2022-12-24T19:21:42.500Z,2.59
2022-12-24T19:22:45.646Z,2.28
2022-12-24T19:23:49.834Z,1.58
2022-12-24T19:24:51.910Z,1.51
2022-12-24T19:25:54.999Z,1.15
2022-12-24T19:26:58.611Z,1.28
2022-12-24T19:28:01.907Z,1.19
2022-12-24T19:29:04.174Z,0.92
2022-12-24T19:30:08.921Z,0.81
2022-12-24T19:31:12.976Z,0.70
2022-12-24T19:32:16.129Z,0.76
2022-12-24T19:33:18.317Z,0.74
2022-12-24T19:34:21.491Z,0.78
2022-12-24T19:35:23.632Z,0.71
2022-12-24T19:36:29.203Z,0.76
2022-12-24T19:37:31.324Z,0.74
2022-12-24T19:38:35.234Z,0.84
2022-12-24T19:39:37.465Z,0.80
2022-12-24T19:40:40.548Z,0.77
2022-12-24T19:41:42.797Z,0.72
2022-12-24T19:42:50.001Z,0.80
2022-12-24T19:43:55.171Z,0.69
2022-12-24T19:44:58.288Z,0.71
2022-12-24T19:46:00.549Z,0.83
2022-12-24T19:47:03.793Z,0.73
2022-12-24T19:48:06.374Z,0.68
2022-12-24T19:49:13.116Z,0.93
2022-12-24T19:50:16.627Z,0.88
2022-12-24T19:51:20.853Z,0.87
2022-12-24T19:52:23.026Z,0.74
2022-12-24T19:53:26.221Z,0.89
2022-12-24T19:54:28.368Z,1.09
2022-12-24T19:55:31.562Z,1.60
2022-12-24T19:56:33.952Z,2.73
2022-12-24T19:57:37.440Z,3.49
2022-12-24T19:58:41.065Z,4.34
2022-12-24T19:59:44.202Z,3.74
2022-12-24T20:00:46.626Z,2.79
2022-12-24T20:01:49.805Z,1.76
2022-12-24T20:02:52.028Z,2.06
2022-12-24T20:03:56.013Z,4.04
